Terminal Aerodrome Forecast
Issued by NWS Cleveland, OH

Home | Current Version | Previous Version | Text Only | Print | Product List | Glossary Off
Versions: 1 2 3 4 5 6 7 8 9 10 11 12 13 14 15 16

380
FTUS41 KCLE 281736
TAFERI
TAF
KERI 281736Z 2818/2918 14012KT P6SM OVC250
     FM282100 11010G15KT P6SM OVC080
     FM290100 11015G25KT P6SM OVC080
     FM290900 10015G25KT P6SM -RA OVC035
     FM291400 10020G30KT P6SM OVC080=

USA.gov is the U.S. government's official web portal to all federal, state and local government web resources and services.